Terminal Aerodrome Forecast
Issued by NWS Northern Indiana

Home | Current Version | Previous Version | Graphics & Text | Print | Product List | Glossary On
Versions: 1 2 3 4 5 6 7 8 9 10 11 12 13 14 15 16 17
654
FTUS43 KIWX 172202 AAA
TAFFWA
TAF AMD
KFWA 172202Z 1722/1818 24006KT 1SM -SN OVC025
      TEMPO 1723/1802 3/4SM -SN BR BKN006
     FM180300 26010KT P6SM OVC015
     FM181200 24003KT P6SM SCT250=

USA.gov is the U.S. government's official web portal to all federal, state and local government web resources and services.